sensor_id;sensor_type;location;lat;lon;timestamp;P1;durP1;ratioP1;P2;durP2;ratioP2
5303;SDS011;2674;49.722;10.892;2023-01-05T00:01:05;1.70;;;1.60;;
5303;SDS011;2674;49.722;10.892;2023-01-05T00:03:33;1.83;;;1.13;;
5303;SDS011;2674;49.722;10.892;2023-01-05T00:06:04;3.43;;;1.60;;
5303;SDS011;2674;49.722;10.892;2023-01-05T00:08:33;2.10;;;1.60;;
5303;SDS011;2674;49.722;10.892;2023-01-05T00:11:06;2.17;;;1.97;;
5303;SDS011;2674;49.722;10.892;2023-01-05T00:13:57;1.30;;;1.20;;
5303;SDS011;2674;49.722;10.892;2023-01-05T00:16:42;2.53;;;1.60;;
5303;SDS011;2674;49.722;10.892;2023-01-05T00:19:26;1.37;;;1.27;;
5303;SDS011;2674;49.722;10.892;2023-01-05T00:22:15;1.40;;;1.30;;
5303;SDS011;2674;49.722;10.892;2023-01-05T00:27:29;1.30;;;1.20;;
5303;SDS011;2674;49.722;10.892;2023-01-05T00:29:55;1.83;;;1.00;;
5303;SDS011;2674;49.722;10.892;2023-01-05T00:32:22;1.30;;;1.20;;
5303;SDS011;2674;49.722;10.892;2023-01-05T00:34:48;1.70;;;1.07;;
5303;SDS011;2674;49.722;10.892;2023-01-05T00:37:15;0.97;;;0.97;;
5303;SDS011;2674;49.722;10.892;2023-01-05T00:39:41;1.33;;;1.00;;
5303;SDS011;2674;49.722;10.892;2023-01-05T00:42:07;1.13;;;1.00;;
5303;SDS011;2674;49.722;10.892;2023-01-05T00:44:33;1.47;;;1.03;;
5303;SDS011;2674;49.722;10.892;2023-01-05T00:46:59;2.27;;;1.20;;
5303;SDS011;2674;49.722;10.892;2023-01-05T00:49:24;1.30;;;1.20;;
5303;SDS011;2674;49.722;10.892;2023-01-05T00:51:50;1.10;;;1.10;;
5303;SDS011;2674;49.722;10.892;2023-01-05T00:54:16;1.30;;;1.20;;
5303;SDS011;2674;49.722;10.892;2023-01-05T00:56:42;1.60;;;1.13;;
5303;SDS011;2674;49.722;10.892;2023-01-05T00:59:08;0.87;;;0.87;;
5303;SDS011;2674;49.722;10.892;2023-01-05T01:01:34;1.33;;;1.27;;
5303;SDS011;2674;49.722;10.892;2023-01-05T01:04:00;1.40;;;1.30;;
5303;SDS011;2674;49.722;10.892;2023-01-05T01:06:27;1.37;;;1.27;;
5303;SDS011;2674;49.722;10.892;2023-01-05T01:08:52;3.13;;;1.30;;
5303;SDS011;2674;49.722;10.892;2023-01-05T01:11:18;1.90;;;1.53;;
5303;SDS011;2674;49.722;10.892;2023-01-05T01:13:47;1.33;;;1.23;;
5303;SDS011;2674;49.722;10.892;2023-01-05T01:16:13;1.50;;;1.10;;
5303;SDS011;2674;49.722;10.892;2023-01-05T01:18:40;1.40;;;1.23;;
5303;SDS011;2674;49.722;10.892;2023-01-05T01:21:06;1.50;;;1.40;;
5303;SDS011;2674;49.722;10.892;2023-01-05T01:23:33;5.90;;;1.00;;
5303;SDS011;2674;49.722;10.892;2023-01-05T01:26:05;2.97;;;1.07;;
5303;SDS011;2674;49.722;10.892;2023-01-05T01:28:32;1.57;;;1.10;;
5303;SDS011;2674;49.722;10.892;2023-01-05T01:30:59;1.30;;;1.20;;
5303;SDS011;2674;49.722;10.892;2023-01-05T01:33:25;1.57;;;1.23;;
5303;SDS011;2674;49.722;10.892;2023-01-05T01:35:51;1.10;;;1.10;;
5303;SDS011;2674;49.722;10.892;2023-01-05T01:38:17;2.57;;;1.33;;
5303;SDS011;2674;49.722;10.892;2023-01-05T01:40:45;1.23;;;1.20;;
5303;SDS011;2674;49.722;10.892;2023-01-05T01:46:05;1.30;;;1.30;;
5303;SDS011;2674;49.722;10.892;2023-01-05T01:48:31;1.00;;;1.00;;
5303;SDS011;2674;49.722;10.892;2023-01-05T01:50:59;1.00;;;1.00;;
5303;SDS011;2674;49.722;10.892;2023-01-05T01:53:30;0.90;;;0.90;;
5303;SDS011;2674;49.722;10.892;2023-01-05T01:56:02;1.07;;;1.07;;
5303;SDS011;2674;49.722;10.892;2023-01-05T01:58:31;1.10;;;1.07;;
5303;SDS011;2674;49.722;10.892;2023-01-05T02:00:58;0.93;;;0.93;;
5303;SDS011;2674;49.722;10.892;2023-01-05T02:03:28;2.10;;;1.27;;
5303;SDS011;2674;49.722;10.892;2023-01-05T02:05:55;1.37;;;0.90;;
5303;SDS011;2674;49.722;10.892;2023-01-05T02:08:21;1.00;;;0.90;;
5303;SDS011;2674;49.722;10.892;2023-01-05T02:11:14;1.30;;;0.80;;
5303;SDS011;2674;49.722;10.892;2023-01-05T02:21:50;0.90;;;0.90;;
5303;SDS011;2674;49.722;10.892;2023-01-05T02:24:47;0.90;;;0.90;;
5303;SDS011;2674;49.722;10.892;2023-01-05T02:38:54;1.00;;;1.00;;
5303;SDS011;2674;49.722;10.892;2023-01-05T02:44:29;0.80;;;0.80;;
5303;SDS011;2674;49.722;10.892;2023-01-05T02:47:01;0.90;;;0.90;;
5303;SDS011;2674;49.722;10.892;2023-01-05T02:49:46;1.00;;;0.90;;
5303;SDS011;2674;49.722;10.892;2023-01-05T02:52:12;1.20;;;1.20;;
5303;SDS011;2674;49.722;10.892;2023-01-05T02:54:44;1.30;;;1.30;;
5303;SDS011;2674;49.722;10.892;2023-01-05T02:57:15;1.00;;;1.00;;
5303;SDS011;2674;49.722;10.892;2023-01-05T02:59:46;0.80;;;0.80;;
5303;SDS011;2674;49.722;10.892;2023-01-05T03:02:21;0.97;;;0.97;;
5303;SDS011;2674;49.722;10.892;2023-01-05T03:04:57;1.20;;;1.10;;
5303;SDS011;2674;49.722;10.892;2023-01-05T03:07:30;1.37;;;1.00;;
5303;SDS011;2674;49.722;10.892;2023-01-05T03:10:00;1.07;;;1.07;;
5303;SDS011;2674;49.722;10.892;2023-01-05T03:12:46;1.20;;;1.20;;
5303;SDS011;2674;49.722;10.892;2023-01-05T03:15:36;1.20;;;0.87;;
5303;SDS011;2674;49.722;10.892;2023-01-05T03:18:04;1.83;;;0.90;;
5303;SDS011;2674;49.722;10.892;2023-01-05T03:20:33;1.10;;;1.00;;
5303;SDS011;2674;49.722;10.892;2023-01-05T03:23:03;0.70;;;0.70;;
5303;SDS011;2674;49.722;10.892;2023-01-05T03:25:50;1.50;;;1.10;;
5303;SDS011;2674;49.722;10.892;2023-01-05T03:28:43;0.90;;;0.90;;
5303;SDS011;2674;49.722;10.892;2023-01-05T03:31:33;2.17;;;1.20;;
5303;SDS011;2674;49.722;10.892;2023-01-05T03:37:22;1.03;;;1.03;;
5303;SDS011;2674;49.722;10.892;2023-01-05T03:39:59;0.90;;;0.90;;
5303;SDS011;2674;49.722;10.892;2023-01-05T03:42:29;1.40;;;1.40;;
5303;SDS011;2674;49.722;10.892;2023-01-05T03:44:55;1.07;;;1.07;;
5303;SDS011;2674;49.722;10.892;2023-01-05T03:47:22;1.10;;;1.10;;
5303;SDS011;2674;49.722;10.892;2023-01-05T03:49:49;0.90;;;0.90;;
5303;SDS011;2674;49.722;10.892;2023-01-05T03:52:15;1.20;;;1.20;;
5303;SDS011;2674;49.722;10.892;2023-01-05T03:54:41;1.60;;;1.10;;
5303;SDS011;2674;49.722;10.892;2023-01-05T03:57:07;1.40;;;1.30;;
5303;SDS011;2674;49.722;10.892;2023-01-05T03:59:33;1.50;;;1.40;;
5303;SDS011;2674;49.722;10.892;2023-01-05T04:01:58;1.10;;;1.10;;
5303;SDS011;2674;49.722;10.892;2023-01-05T04:04:24;1.40;;;1.40;;
5303;SDS011;2674;49.722;10.892;2023-01-05T04:06:51;1.33;;;1.23;;
5303;SDS011;2674;49.722;10.892;2023-01-05T04:09:17;0.90;;;0.90;;
5303;SDS011;2674;49.722;10.892;2023-01-05T04:11:43;1.80;;;1.30;;
5303;SDS011;2674;49.722;10.892;2023-01-05T04:14:08;1.23;;;1.23;;
5303;SDS011;2674;49.722;10.892;2023-01-05T04:16:34;1.30;;;1.30;;
5303;SDS011;2674;49.722;10.892;2023-01-05T04:19:00;0.90;;;0.90;;
5303;SDS011;2674;49.722;10.892;2023-01-05T04:21:26;0.87;;;0.87;;
5303;SDS011;2674;49.722;10.892;2023-01-05T04:23:51;0.77;;;0.77;;
5303;SDS011;2674;49.722;10.892;2023-01-05T04:26:17;0.90;;;0.90;;
5303;SDS011;2674;49.722;10.892;2023-01-05T04:28:43;0.73;;;0.73;;
5303;SDS011;2674;49.722;10.892;2023-01-05T04:31:09;0.90;;;0.90;;
5303;SDS011;2674;49.722;10.892;2023-01-05T04:33:34;0.93;;;0.93;;
5303;SDS011;2674;49.722;10.892;2023-01-05T04:36:03;0.90;;;0.90;;
5303;SDS011;2674;49.722;10.892;2023-01-05T04:38:29;0.97;;;0.97;;
5303;SDS011;2674;49.722;10.892;2023-01-05T04:40:55;0.80;;;0.80;;
5303;SDS011;2674;49.722;10.892;2023-01-05T04:43:21;0.77;;;0.77;;
5303;SDS011;2674;49.722;10.892;2023-01-05T04:45:47;0.70;;;0.70;;
5303;SDS011;2674;49.722;10.892;2023-01-05T04:48:13;0.60;;;0.60;;
5303;SDS011;2674;49.722;10.892;2023-01-05T04:50:40;0.60;;;0.60;;
5303;SDS011;2674;49.722;10.892;2023-01-05T04:53:06;0.90;;;0.90;;
5303;SDS011;2674;49.722;10.892;2023-01-05T04:55:32;0.93;;;0.80;;
5303;SDS011;2674;49.722;10.892;2023-01-05T04:57:57;0.80;;;0.80;;
5303;SDS011;2674;49.722;10.892;2023-01-05T05:00:23;0.97;;;0.97;;
5303;SDS011;2674;49.722;10.892;2023-01-05T05:02:49;0.80;;;0.80;;
5303;SDS011;2674;49.722;10.892;2023-01-05T05:05:15;0.70;;;0.70;;
5303;SDS011;2674;49.722;10.892;2023-01-05T05:07:41;1.17;;;1.07;;
5303;SDS011;2674;49.722;10.892;2023-01-05T05:10:07;0.83;;;0.83;;
5303;SDS011;2674;49.722;10.892;2023-01-05T05:12:33;0.70;;;0.70;;
5303;SDS011;2674;49.722;10.892;2023-01-05T05:14:59;0.83;;;0.70;;
5303;SDS011;2674;49.722;10.892;2023-01-05T05:17:24;0.80;;;0.80;;
5303;SDS011;2674;49.722;10.892;2023-01-05T05:19:50;0.80;;;0.80;;
5303;SDS011;2674;49.722;10.892;2023-01-05T05:22:16;1.13;;;1.00;;
5303;SDS011;2674;49.722;10.892;2023-01-05T05:24:42;4.30;;;1.00;;
5303;SDS011;2674;49.722;10.892;2023-01-05T05:27:08;3.90;;;0.90;;
5303;SDS011;2674;49.722;10.892;2023-01-05T05:29:33;0.80;;;0.80;;
5303;SDS011;2674;49.722;10.892;2023-01-05T05:31:59;7.20;;;1.50;;
5303;SDS011;2674;49.722;10.892;2023-01-05T05:34:25;5.77;;;1.73;;
5303;SDS011;2674;49.722;10.892;2023-01-05T05:36:51;6.80;;;1.00;;
5303;SDS011;2674;49.722;10.892;2023-01-05T05:39:17;1.20;;;1.10;;
5303;SDS011;2674;49.722;10.892;2023-01-05T05:41:43;8.73;;;1.77;;
5303;SDS011;2674;49.722;10.892;2023-01-05T05:44:08;7.53;;;2.13;;
5303;SDS011;2674;49.722;10.892;2023-01-05T05:46:34;4.47;;;1.13;;
5303;SDS011;2674;49.722;10.892;2023-01-05T05:49:00;3.60;;;1.57;;
5303;SDS011;2674;49.722;10.892;2023-01-05T05:51:26;3.30;;;1.10;;
5303;SDS011;2674;49.722;10.892;2023-01-05T05:53:52;2.30;;;1.63;;
5303;SDS011;2674;49.722;10.892;2023-01-05T05:56:18;5.37;;;1.23;;
5303;SDS011;2674;49.722;10.892;2023-01-05T05:58:44;2.77;;;1.53;;
5303;SDS011;2674;49.722;10.892;2023-01-05T06:01:10;8.50;;;1.67;;
5303;SDS011;2674;49.722;10.892;2023-01-05T06:03:36;4.30;;;1.10;;
5303;SDS011;2674;49.722;10.892;2023-01-05T06:06:02;11.63;;;3.03;;
5303;SDS011;2674;49.722;10.892;2023-01-05T06:08:29;1.30;;;1.20;;
5303;SDS011;2674;49.722;10.892;2023-01-05T06:10:55;16.40;;;2.23;;
5303;SDS011;2674;49.722;10.892;2023-01-05T06:13:21;5.93;;;1.60;;
5303;SDS011;2674;49.722;10.892;2023-01-05T06:15:48;7.10;;;1.70;;
5303;SDS011;2674;49.722;10.892;2023-01-05T06:18:14;5.03;;;1.60;;
5303;SDS011;2674;49.722;10.892;2023-01-05T06:20:41;4.53;;;1.20;;
5303;SDS011;2674;49.722;10.892;2023-01-05T06:23:06;8.43;;;1.57;;
5303;SDS011;2674;49.722;10.892;2023-01-05T06:25:32;6.20;;;2.10;;
5303;SDS011;2674;49.722;10.892;2023-01-05T06:27:58;7.00;;;1.60;;
5303;SDS011;2674;49.722;10.892;2023-01-05T06:30:24;2.70;;;1.97;;
5303;SDS011;2674;49.722;10.892;2023-01-05T06:32:51;8.30;;;2.17;;
5303;SDS011;2674;49.722;10.892;2023-01-05T06:35:16;8.63;;;2.20;;
5303;SDS011;2674;49.722;10.892;2023-01-05T06:37:43;9.57;;;1.90;;
5303;SDS011;2674;49.722;10.892;2023-01-05T06:40:08;6.87;;;1.60;;
5303;SDS011;2674;49.722;10.892;2023-01-05T06:42:36;3.33;;;1.63;;
5303;SDS011;2674;49.722;10.892;2023-01-05T06:45:03;5.13;;;1.80;;
5303;SDS011;2674;49.722;10.892;2023-01-05T06:47:30;9.57;;;1.63;;
5303;SDS011;2674;49.722;10.892;2023-01-05T06:49:56;6.13;;;1.83;;
5303;SDS011;2674;49.722;10.892;2023-01-05T06:52:22;8.10;;;1.60;;
5303;SDS011;2674;49.722;10.892;2023-01-05T06:54:48;10.23;;;1.67;;
5303;SDS011;2674;49.722;10.892;2023-01-05T06:57:13;6.33;;;1.90;;
5303;SDS011;2674;49.722;10.892;2023-01-05T06:59:40;11.40;;;2.00;;
5303;SDS011;2674;49.722;10.892;2023-01-05T07:02:13;9.70;;;2.13;;
5303;SDS011;2674;49.722;10.892;2023-01-05T07:04:40;12.50;;;2.07;;
5303;SDS011;2674;49.722;10.892;2023-01-05T07:07:06;6.30;;;1.77;;
5303;SDS011;2674;49.722;10.892;2023-01-05T07:09:33;6.57;;;2.50;;
5303;SDS011;2674;49.722;10.892;2023-01-05T07:11:58;12.30;;;2.57;;
5303;SDS011;2674;49.722;10.892;2023-01-05T07:14:24;8.53;;;2.13;;
5303;SDS011;2674;49.722;10.892;2023-01-05T07:16:50;5.67;;;1.90;;
5303;SDS011;2674;49.722;10.892;2023-01-05T07:19:16;10.40;;;2.30;;
5303;SDS011;2674;49.722;10.892;2023-01-05T07:21:41;10.37;;;2.20;;
5303;SDS011;2674;49.722;10.892;2023-01-05T07:24:07;7.27;;;2.77;;
5303;SDS011;2674;49.722;10.892;2023-01-05T07:26:33;5.77;;;2.67;;
5303;SDS011;2674;49.722;10.892;2023-01-05T07:28:59;9.73;;;2.13;;
5303;SDS011;2674;49.722;10.892;2023-01-05T07:31:25;11.30;;;2.07;;
5303;SDS011;2674;49.722;10.892;2023-01-05T07:33:51;8.87;;;2.70;;
5303;SDS011;2674;49.722;10.892;2023-01-05T07:36:16;7.80;;;2.47;;
5303;SDS011;2674;49.722;10.892;2023-01-05T07:38:42;7.90;;;2.00;;
5303;SDS011;2674;49.722;10.892;2023-01-05T07:41:08;7.70;;;2.50;;
5303;SDS011;2674;49.722;10.892;2023-01-05T07:43:34;9.40;;;2.63;;
5303;SDS011;2674;49.722;10.892;2023-01-05T07:46:00;4.77;;;2.13;;
5303;SDS011;2674;49.722;10.892;2023-01-05T07:48:27;12.10;;;2.53;;
5303;SDS011;2674;49.722;10.892;2023-01-05T07:51:02;8.97;;;2.87;;
5303;SDS011;2674;49.722;10.892;2023-01-05T07:53:30;16.27;;;4.03;;
5303;SDS011;2674;49.722;10.892;2023-01-05T07:55:57;9.10;;;2.20;;
5303;SDS011;2674;49.722;10.892;2023-01-05T07:58:25;3.23;;;2.13;;
5303;SDS011;2674;49.722;10.892;2023-01-05T08:00:51;15.53;;;2.33;;
5303;SDS011;2674;49.722;10.892;2023-01-05T08:03:18;11.53;;;2.70;;
5303;SDS011;2674;49.722;10.892;2023-01-05T08:05:43;10.70;;;3.47;;
5303;SDS011;2674;49.722;10.892;2023-01-05T08:08:10;8.90;;;3.10;;
5303;SDS011;2674;49.722;10.892;2023-01-05T08:10:42;14.33;;;3.50;;
5303;SDS011;2674;49.722;10.892;2023-01-05T08:13:08;16.80;;;4.30;;
5303;SDS011;2674;49.722;10.892;2023-01-05T08:15:54;11.83;;;2.10;;
5303;SDS011;2674;49.722;10.892;2023-01-05T08:18:21;5.63;;;2.70;;
5303;SDS011;2674;49.722;10.892;2023-01-05T08:20:54;15.67;;;4.00;;
5303;SDS011;2674;49.722;10.892;2023-01-05T08:23:26;8.23;;;3.10;;
5303;SDS011;2674;49.722;10.892;2023-01-05T08:25:52;14.03;;;2.10;;
5303;SDS011;2674;49.722;10.892;2023-01-05T08:28:18;6.03;;;2.53;;
5303;SDS011;2674;49.722;10.892;2023-01-05T08:30:45;11.33;;;2.73;;
5303;SDS011;2674;49.722;10.892;2023-01-05T08:33:11;8.93;;;2.50;;
5303;SDS011;2674;49.722;10.892;2023-01-05T08:35:41;5.93;;;2.57;;
5303;SDS011;2674;49.722;10.892;2023-01-05T08:38:08;5.70;;;2.57;;
5303;SDS011;2674;49.722;10.892;2023-01-05T08:40:35;4.63;;;2.23;;
5303;SDS011;2674;49.722;10.892;2023-01-05T08:43:03;8.47;;;2.43;;
5303;SDS011;2674;49.722;10.892;2023-01-05T08:45:30;11.43;;;2.70;;
5303;SDS011;2674;49.722;10.892;2023-01-05T08:47:56;11.70;;;2.50;;
5303;SDS011;2674;49.722;10.892;2023-01-05T08:50:22;14.73;;;3.53;;
5303;SDS011;2674;49.722;10.892;2023-01-05T08:52:48;8.63;;;2.23;;
5303;SDS011;2674;49.722;10.892;2023-01-05T08:55:14;4.73;;;2.33;;
5303;SDS011;2674;49.722;10.892;2023-01-05T08:57:40;10.00;;;2.30;;
5303;SDS011;2674;49.722;10.892;2023-01-05T09:00:06;14.43;;;2.83;;
5303;SDS011;2674;49.722;10.892;2023-01-05T09:02:32;6.00;;;1.67;;
5303;SDS011;2674;49.722;10.892;2023-01-05T09:04:58;9.77;;;2.53;;
5303;SDS011;2674;49.722;10.892;2023-01-05T09:07:25;4.87;;;2.10;;
5303;SDS011;2674;49.722;10.892;2023-01-05T09:09:52;13.40;;;2.70;;
5303;SDS011;2674;49.722;10.892;2023-01-05T09:12:18;16.33;;;2.63;;
5303;SDS011;2674;49.722;10.892;2023-01-05T09:14:44;6.20;;;3.23;;
5303;SDS011;2674;49.722;10.892;2023-01-05T09:17:10;6.90;;;2.60;;
5303;SDS011;2674;49.722;10.892;2023-01-05T09:19:35;9.43;;;2.60;;
5303;SDS011;2674;49.722;10.892;2023-01-05T09:22:02;10.33;;;2.60;;
5303;SDS011;2674;49.722;10.892;2023-01-05T09:24:27;7.73;;;2.70;;
5303;SDS011;2674;49.722;10.892;2023-01-05T09:26:53;10.50;;;2.90;;
5303;SDS011;2674;49.722;10.892;2023-01-05T09:29:20;15.13;;;3.40;;
5303;SDS011;2674;49.722;10.892;2023-01-05T09:31:46;9.73;;;3.40;;
5303;SDS011;2674;49.722;10.892;2023-01-05T09:34:11;9.83;;;3.00;;
5303;SDS011;2674;49.722;10.892;2023-01-05T09:36:37;14.13;;;2.37;;
5303;SDS011;2674;49.722;10.892;2023-01-05T09:39:03;10.20;;;2.70;;
5303;SDS011;2674;49.722;10.892;2023-01-05T09:46:50;10.80;;;2.70;;
5303;SDS011;2674;49.722;10.892;2023-01-05T09:49:20;12.03;;;3.70;;
5303;SDS011;2674;49.722;10.892;2023-01-05T09:51:48;7.63;;;2.40;;
5303;SDS011;2674;49.722;10.892;2023-01-05T09:54:18;14.10;;;2.40;;
5303;SDS011;2674;49.722;10.892;2023-01-05T09:56:46;8.90;;;1.63;;
5303;SDS011;2674;49.722;10.892;2023-01-05T09:59:14;4.77;;;1.77;;
5303;SDS011;2674;49.722;10.892;2023-01-05T10:01:45;10.37;;;2.30;;
5303;SDS011;2674;49.722;10.892;2023-01-05T10:04:20;13.93;;;2.10;;
5303;SDS011;2674;49.722;10.892;2023-01-05T10:06:52;6.80;;;2.37;;
5303;SDS011;2674;49.722;10.892;2023-01-05T10:09:42;13.60;;;3.30;;
5303;SDS011;2674;49.722;10.892;2023-01-05T10:12:30;9.47;;;2.10;;
5303;SDS011;2674;49.722;10.892;2023-01-05T10:15:26;13.93;;;2.47;;
5303;SDS011;2674;49.722;10.892;2023-01-05T10:17:53;6.63;;;1.77;;
5303;SDS011;2674;49.722;10.892;2023-01-05T10:20:24;5.77;;;2.03;;
5303;SDS011;2674;49.722;10.892;2023-01-05T10:28:28;11.63;;;1.60;;
5303;SDS011;2674;49.722;10.892;2023-01-05T10:31:54;5.20;;;1.53;;
5303;SDS011;2674;49.722;10.892;2023-01-05T10:36:47;1.67;;;1.20;;
5303;SDS011;2674;49.722;10.892;2023-01-05T10:39:50;10.27;;;2.53;;
5303;SDS011;2674;49.722;10.892;2023-01-05T10:44:54;5.70;;;1.37;;
5303;SDS011;2674;49.722;10.892;2023-01-05T10:47:23;4.70;;;1.87;;
5303;SDS011;2674;49.722;10.892;2023-01-05T10:49:51;6.83;;;2.03;;
5303;SDS011;2674;49.722;10.892;2023-01-05T10:52:19;6.47;;;1.90;;
5303;SDS011;2674;49.722;10.892;2023-01-05T10:54:54;12.70;;;2.63;;
5303;SDS011;2674;49.722;10.892;2023-01-05T11:02:39;8.47;;;2.03;;
5303;SDS011;2674;49.722;10.892;2023-01-05T11:07:47;5.77;;;1.87;;
5303;SDS011;2674;49.722;10.892;2023-01-05T11:10:20;9.20;;;2.50;;
5303;SDS011;2674;49.722;10.892;2023-01-05T11:12:51;3.50;;;1.90;;
5303;SDS011;2674;49.722;10.892;2023-01-05T11:15:27;6.03;;;2.40;;
5303;SDS011;2674;49.722;10.892;2023-01-05T11:17:55;5.57;;;1.87;;
5303;SDS011;2674;49.722;10.892;2023-01-05T11:20:22;4.40;;;1.80;;
5303;SDS011;2674;49.722;10.892;2023-01-05T11:22:48;7.30;;;2.53;;
5303;SDS011;2674;49.722;10.892;2023-01-05T11:25:23;7.77;;;1.90;;
5303;SDS011;2674;49.722;10.892;2023-01-05T11:30:40;10.33;;;2.27;;
5303;SDS011;2674;49.722;10.892;2023-01-05T11:33:29;5.10;;;1.40;;
5303;SDS011;2674;49.722;10.892;2023-01-05T11:35:58;8.47;;;3.17;;
5303;SDS011;2674;49.722;10.892;2023-01-05T11:38:26;9.43;;;1.97;;
5303;SDS011;2674;49.722;10.892;2023-01-05T11:40:54;4.37;;;1.90;;
5303;SDS011;2674;49.722;10.892;2023-01-05T11:43:23;5.13;;;2.37;;
5303;SDS011;2674;49.722;10.892;2023-01-05T11:45:56;4.33;;;1.40;;
5303;SDS011;2674;49.722;10.892;2023-01-05T11:48:28;10.47;;;2.03;;
5303;SDS011;2674;49.722;10.892;2023-01-05T11:50:56;10.93;;;3.10;;
5303;SDS011;2674;49.722;10.892;2023-01-05T11:55:59;11.30;;;3.00;;
5303;SDS011;2674;49.722;10.892;2023-01-05T11:58:43;6.30;;;1.57;;
5303;SDS011;2674;49.722;10.892;2023-01-05T12:08:59;6.17;;;2.10;;
5303;SDS011;2674;49.722;10.892;2023-01-05T12:11:36;5.33;;;2.07;;
5303;SDS011;2674;49.722;10.892;2023-01-05T12:14:17;11.17;;;2.83;;
5303;SDS011;2674;49.722;10.892;2023-01-05T12:16:53;15.37;;;2.47;;
5303;SDS011;2674;49.722;10.892;2023-01-05T12:19:30;6.83;;;1.80;;
5303;SDS011;2674;49.722;10.892;2023-01-05T12:22:09;8.10;;;2.87;;
5303;SDS011;2674;49.722;10.892;2023-01-05T12:27:31;9.30;;;1.90;;
5303;SDS011;2674;49.722;10.892;2023-01-05T12:30:22;10.83;;;2.13;;
5303;SDS011;2674;49.722;10.892;2023-01-05T12:35:50;6.70;;;1.33;;
5303;SDS011;2674;49.722;10.892;2023-01-05T12:41:07;5.17;;;1.97;;
5303;SDS011;2674;49.722;10.892;2023-01-05T12:49:03;12.57;;;2.13;;
5303;SDS011;2674;49.722;10.892;2023-01-05T12:51:41;6.00;;;2.20;;
5303;SDS011;2674;49.722;10.892;2023-01-05T12:54:16;5.27;;;1.77;;
5303;SDS011;2674;49.722;10.892;2023-01-05T12:56:57;5.77;;;2.00;;
5303;SDS011;2674;49.722;10.892;2023-01-05T13:00:03;10.43;;;2.30;;
5303;SDS011;2674;49.722;10.892;2023-01-05T13:02:42;9.40;;;2.20;;
5303;SDS011;2674;49.722;10.892;2023-01-05T13:08:10;7.27;;;1.97;;
5303;SDS011;2674;49.722;10.892;2023-01-05T13:13:28;9.43;;;2.90;;
5303;SDS011;2674;49.722;10.892;2023-01-05T13:16:16;19.33;;;3.13;;
5303;SDS011;2674;49.722;10.892;2023-01-05T13:18:49;8.97;;;2.23;;
5303;SDS011;2674;49.722;10.892;2023-01-05T13:21:20;6.20;;;2.50;;
5303;SDS011;2674;49.722;10.892;2023-01-05T13:23:51;8.47;;;2.47;;
5303;SDS011;2674;49.722;10.892;2023-01-05T13:26:20;12.40;;;2.63;;
5303;SDS011;2674;49.722;10.892;2023-01-05T13:28:47;12.00;;;2.33;;
5303;SDS011;2674;49.722;10.892;2023-01-05T13:31:39;7.17;;;2.67;;
5303;SDS011;2674;49.722;10.892;2023-01-05T13:34:26;13.00;;;2.80;;
5303;SDS011;2674;49.722;10.892;2023-01-05T13:50:25;5.10;;;2.47;;
5303;SDS011;2674;49.722;10.892;2023-01-05T13:55:44;8.03;;;3.03;;
5303;SDS011;2674;49.722;10.892;2023-01-05T14:00:54;9.97;;;2.90;;
5303;SDS011;2674;49.722;10.892;2023-01-05T14:03:54;10.23;;;3.37;;
5303;SDS011;2674;49.722;10.892;2023-01-05T14:09:07;12.97;;;2.33;;
5303;SDS011;2674;49.722;10.892;2023-01-05T14:12:42;14.73;;;3.90;;
5303;SDS011;2674;49.722;10.892;2023-01-05T14:22:56;14.83;;;3.70;;
5303;SDS011;2674;49.722;10.892;2023-01-05T14:26:05;9.07;;;2.70;;
5303;SDS011;2674;49.722;10.892;2023-01-05T14:36:32;15.70;;;3.37;;
5303;SDS011;2674;49.722;10.892;2023-01-05T14:41:43;12.97;;;2.37;;
5303;SDS011;2674;49.722;10.892;2023-01-05T14:44:25;19.17;;;4.57;;
5303;SDS011;2674;49.722;10.892;2023-01-05T14:47:11;14.87;;;3.40;;
5303;SDS011;2674;49.722;10.892;2023-01-05T14:49:53;15.40;;;2.70;;
5303;SDS011;2674;49.722;10.892;2023-01-05T14:55:34;8.80;;;2.70;;
5303;SDS011;2674;49.722;10.892;2023-01-05T15:00:57;7.23;;;2.77;;
5303;SDS011;2674;49.722;10.892;2023-01-05T15:03:35;16.67;;;3.80;;
5303;SDS011;2674;49.722;10.892;2023-01-05T15:06:16;11.57;;;3.47;;
5303;SDS011;2674;49.722;10.892;2023-01-05T15:26:34;21.77;;;6.40;;
5303;SDS011;2674;49.722;10.892;2023-01-05T15:29:12;16.80;;;4.10;;
5303;SDS011;2674;49.722;10.892;2023-01-05T15:32:15;12.23;;;3.23;;
5303;SDS011;2674;49.722;10.892;2023-01-05T15:34:54;9.00;;;2.80;;
5303;SDS011;2674;49.722;10.892;2023-01-05T15:37:39;14.43;;;4.50;;
5303;SDS011;2674;49.722;10.892;2023-01-05T15:42:55;11.93;;;3.97;;
5303;SDS011;2674;49.722;10.892;2023-01-05T15:48:03;3.90;;;2.07;;
5303;SDS011;2674;49.722;10.892;2023-01-05T15:50:54;18.13;;;3.10;;
5303;SDS011;2674;49.722;10.892;2023-01-05T15:53:32;10.50;;;3.10;;
5303;SDS011;2674;49.722;10.892;2023-01-05T15:56:06;12.33;;;3.00;;
5303;SDS011;2674;49.722;10.892;2023-01-05T15:58:57;12.07;;;4.03;;
5303;SDS011;2674;49.722;10.892;2023-01-05T16:01:27;18.27;;;4.50;;
5303;SDS011;2674;49.722;10.892;2023-01-05T16:04:06;15.90;;;5.87;;
5303;SDS011;2674;49.722;10.892;2023-01-05T16:06:42;10.37;;;5.27;;
5303;SDS011;2674;49.722;10.892;2023-01-05T16:09:18;13.47;;;4.63;;
5303;SDS011;2674;49.722;10.892;2023-01-05T16:12:00;17.53;;;5.63;;
5303;SDS011;2674;49.722;10.892;2023-01-05T16:17:09;24.47;;;7.70;;
5303;SDS011;2674;49.722;10.892;2023-01-05T16:19:40;23.77;;;8.33;;
5303;SDS011;2674;49.722;10.892;2023-01-05T16:22:17;27.50;;;7.77;;
5303;SDS011;2674;49.722;10.892;2023-01-05T16:24:59;13.43;;;4.50;;
5303;SDS011;2674;49.722;10.892;2023-01-05T16:27:35;16.00;;;4.40;;
5303;SDS011;2674;49.722;10.892;2023-01-05T16:33:05;20.37;;;4.40;;
5303;SDS011;2674;49.722;10.892;2023-01-05T16:35:49;19.90;;;7.07;;
5303;SDS011;2674;49.722;10.892;2023-01-05T16:38:26;26.43;;;5.20;;
5303;SDS011;2674;49.722;10.892;2023-01-05T16:41:04;17.93;;;4.60;;
5303;SDS011;2674;49.722;10.892;2023-01-05T16:46:22;13.30;;;4.40;;
5303;SDS011;2674;49.722;10.892;2023-01-05T16:51:47;13.40;;;3.97;;
5303;SDS011;2674;49.722;10.892;2023-01-05T16:54:22;13.13;;;4.77;;
5303;SDS011;2674;49.722;10.892;2023-01-05T16:56:50;17.33;;;4.37;;
5303;SDS011;2674;49.722;10.892;2023-01-05T16:59:34;10.23;;;3.93;;
5303;SDS011;2674;49.722;10.892;2023-01-05T17:05:10;10.60;;;3.17;;
5303;SDS011;2674;49.722;10.892;2023-01-05T17:07:43;15.80;;;3.80;;
5303;SDS011;2674;49.722;10.892;2023-01-05T17:10:15;7.63;;;3.17;;
5303;SDS011;2674;49.722;10.892;2023-01-05T17:12:52;15.97;;;4.60;;
5303;SDS011;2674;49.722;10.892;2023-01-05T17:15:28;16.07;;;4.30;;
5303;SDS011;2674;49.722;10.892;2023-01-05T17:17:57;11.13;;;3.33;;
5303;SDS011;2674;49.722;10.892;2023-01-05T17:20:37;16.03;;;4.20;;
5303;SDS011;2674;49.722;10.892;2023-01-05T17:23:05;17.77;;;4.87;;
5303;SDS011;2674;49.722;10.892;2023-01-05T17:25:42;21.53;;;4.40;;
5303;SDS011;2674;49.722;10.892;2023-01-05T17:28:08;9.30;;;3.90;;
5303;SDS011;2674;49.722;10.892;2023-01-05T17:30:34;11.90;;;3.70;;
5303;SDS011;2674;49.722;10.892;2023-01-05T17:33:03;23.80;;;5.10;;
5303;SDS011;2674;49.722;10.892;2023-01-05T17:35:34;19.77;;;4.80;;
5303;SDS011;2674;49.722;10.892;2023-01-05T17:38:01;12.43;;;4.73;;
5303;SDS011;2674;49.722;10.892;2023-01-05T17:40:29;16.10;;;4.40;;
5303;SDS011;2674;49.722;10.892;2023-01-05T17:42:58;12.63;;;3.30;;
5303;SDS011;2674;49.722;10.892;2023-01-05T17:45:27;14.83;;;3.67;;
5303;SDS011;2674;49.722;10.892;2023-01-05T17:48:00;13.90;;;3.23;;
5303;SDS011;2674;49.722;10.892;2023-01-05T17:50:30;10.40;;;3.90;;
5303;SDS011;2674;49.722;10.892;2023-01-05T17:53:02;10.60;;;4.47;;
5303;SDS011;2674;49.722;10.892;2023-01-05T17:55:31;13.50;;;4.03;;
5303;SDS011;2674;49.722;10.892;2023-01-05T17:58:00;10.93;;;4.37;;
5303;SDS011;2674;49.722;10.892;2023-01-05T18:00:30;11.80;;;3.40;;
5303;SDS011;2674;49.722;10.892;2023-01-05T18:03:03;9.67;;;3.07;;
5303;SDS011;2674;49.722;10.892;2023-01-05T18:05:30;10.03;;;4.00;;
5303;SDS011;2674;49.722;10.892;2023-01-05T18:07:56;18.50;;;4.20;;
5303;SDS011;2674;49.722;10.892;2023-01-05T18:10:23;30.10;;;8.80;;
5303;SDS011;2674;49.722;10.892;2023-01-05T18:12:52;36.23;;;9.63;;